createdAt,value
2023-02-23T00:02:08.705Z,6.38
2023-02-23T00:04:36.069Z,7.32
2023-02-23T00:07:03.050Z,7.18
2023-02-23T00:09:35.492Z,7.35
2023-02-23T00:12:08.318Z,7.47
2023-02-23T00:14:37.823Z,7.50
2023-02-23T00:17:05.202Z,8.27
2023-02-23T00:19:33.735Z,8.73
2023-02-23T00:22:01.400Z,9.20
2023-02-23T00:24:28.075Z,9.55
2023-02-23T00:26:54.985Z,8.80
2023-02-23T00:29:23.502Z,9.07
2023-02-23T00:31:51.596Z,8.70
2023-02-23T00:34:24.058Z,8.68
2023-02-23T00:36:55.511Z,8.45
2023-02-23T00:39:26.548Z,8.82
2023-02-23T00:41:54.960Z,10.07
2023-02-23T00:44:23.700Z,10.27
2023-02-23T00:46:52.256Z,10.38
2023-02-23T00:49:20.593Z,10.27
2023-02-23T00:51:47.640Z,8.88
2023-02-23T00:54:16.527Z,8.40
2023-02-23T00:56:43.689Z,8.50
2023-02-23T00:59:11.093Z,8.85
2023-02-23T01:01:38.706Z,9.70
2023-02-23T01:04:07.331Z,10.57
2023-02-23T01:06:37.621Z,10.57
2023-02-23T01:09:11.774Z,10.88
2023-02-23T01:11:38.456Z,11.05
2023-02-23T01:14:05.315Z,10.13
2023-02-23T01:16:34.255Z,10.07
2023-02-23T01:19:03.924Z,10.73
2023-02-23T01:21:37.096Z,10.70
2023-02-23T01:24:04.843Z,10.02
2023-02-23T01:26:34.725Z,10.27
2023-02-23T01:29:04.695Z,11.15
2023-02-23T01:31:32.352Z,11.43
2023-02-23T01:34:00.994Z,11.35
2023-02-23T01:36:29.172Z,11.40
2023-02-23T01:39:00.025Z,11.80
2023-02-23T01:41:33.034Z,11.65
2023-02-23T01:44:05.783Z,11.63
2023-02-23T01:46:35.066Z,11.90
2023-02-23T01:49:04.257Z,12.48
2023-02-23T01:51:37.177Z,11.90
2023-02-23T01:54:08.982Z,12.10
2023-02-23T01:56:43.551Z,11.68
2023-02-23T01:59:15.240Z,12.27
2023-02-23T02:01:43.397Z,11.63
2023-02-23T02:04:16.930Z,12.23
2023-02-23T02:06:45.957Z,12.93
2023-02-23T02:09:17.564Z,15.18
2023-02-23T02:11:46.746Z,16.40
2023-02-23T02:14:17.312Z,15.70
2023-02-23T02:17:22.135Z,17.17
2023-02-23T02:20:32.838Z,15.23
2023-02-23T02:23:24.008Z,13.27
2023-02-23T02:26:27.826Z,14.30
2023-02-23T02:28:55.070Z,12.50
2023-02-23T02:31:37.018Z,11.13
2023-02-23T02:34:22.644Z,11.95
2023-02-23T02:37:14.418Z,12.27
2023-02-23T02:40:16.443Z,12.63
2023-02-23T02:43:10.276Z,13.00
2023-02-23T02:45:45.880Z,11.85
2023-02-23T02:48:19.688Z,12.13
2023-02-23T02:51:10.115Z,12.20
2023-02-23T02:53:45.323Z,11.25
2023-02-23T02:56:19.913Z,11.52
2023-02-23T02:58:50.130Z,11.48
2023-02-23T03:01:37.004Z,11.65
2023-02-23T03:04:40.379Z,11.95
2023-02-23T03:07:44.714Z,12.80
2023-02-23T03:10:50.663Z,12.70
2023-02-23T03:14:10.173Z,15.27
2023-02-23T03:17:23.537Z,13.82
2023-02-23T03:20:11.988Z,13.95
2023-02-23T03:23:06.311Z,13.68
2023-02-23T03:26:05.017Z,14.52
2023-02-23T03:29:03.305Z,14.85
2023-02-23T03:31:58.802Z,14.18
2023-02-23T03:34:59.105Z,14.20
2023-02-23T03:37:51.029Z,13.63
2023-02-23T03:40:44.056Z,13.45
2023-02-23T03:43:37.308Z,13.82
2023-02-23T03:46:26.358Z,12.40
2023-02-23T03:49:15.511Z,12.23
2023-02-23T03:52:04.633Z,11.73
2023-02-23T03:54:58.029Z,12.00
2023-02-23T03:57:46.173Z,12.02
2023-02-23T04:00:36.876Z,11.77
2023-02-23T04:03:24.032Z,12.25
2023-02-23T04:06:11.976Z,12.60
2023-02-23T04:08:57.823Z,12.25
2023-02-23T04:11:49.652Z,12.93
2023-02-23T04:14:42.655Z,12.23
2023-02-23T04:17:10.860Z,12.20
2023-02-23T04:19:37.772Z,12.77
2023-02-23T04:22:04.443Z,13.23
2023-02-23T04:24:31.076Z,13.50
2023-02-23T04:26:57.606Z,13.65
2023-02-23T04:29:24.240Z,14.18
2023-02-23T04:31:50.856Z,14.05
2023-02-23T04:34:17.483Z,14.00
2023-02-23T04:36:44.129Z,12.95
2023-02-23T04:39:10.770Z,14.27
2023-02-23T04:41:37.510Z,14.35
2023-02-23T04:44:04.998Z,14.50
2023-02-23T04:46:31.765Z,16.35
2023-02-23T04:48:58.315Z,14.48
2023-02-23T04:51:30.507Z,15.27
2023-02-23T04:53:57.141Z,15.95
2023-02-23T04:56:24.063Z,15.70
2023-02-23T04:58:50.913Z,15.05
2023-02-23T05:01:18.133Z,15.02
2023-02-23T05:03:44.876Z,15.23
2023-02-23T05:06:12.801Z,15.02
2023-02-23T05:08:39.381Z,14.60
2023-02-23T05:11:07.246Z,15.13
2023-02-23T05:13:34.042Z,15.20
2023-02-23T05:16:00.772Z,15.35
2023-02-23T05:18:45.992Z,15.15
2023-02-23T05:21:12.639Z,14.55
2023-02-23T05:23:39.383Z,14.32
2023-02-23T05:26:09.711Z,14.73
2023-02-23T05:28:37.852Z,12.95
2023-02-23T05:31:05.449Z,12.95
2023-02-23T05:33:33.382Z,13.73
2023-02-23T05:36:00.118Z,12.80
2023-02-23T05:38:27.343Z,10.98
2023-02-23T05:40:54.057Z,12.02
2023-02-23T05:43:20.645Z,13.70
2023-02-23T05:45:47.285Z,13.85
2023-02-23T05:48:14.119Z,14.68
2023-02-23T05:50:40.693Z,16.00
2023-02-23T05:53:07.276Z,16.67
2023-02-23T05:55:33.924Z,19.65
2023-02-23T05:58:00.536Z,17.30
2023-02-23T06:00:27.078Z,15.23
2023-02-23T06:02:54.388Z,14.38
2023-02-23T06:05:21.047Z,17.63
2023-02-23T06:07:48.146Z,17.88
2023-02-23T06:10:14.971Z,19.05
2023-02-23T06:12:41.666Z,18.40
2023-02-23T06:15:08.800Z,19.45
2023-02-23T06:17:36.633Z,19.52
2023-02-23T06:20:05.065Z,18.50
2023-02-23T06:22:31.705Z,17.38
2023-02-23T06:24:58.608Z,18.58
2023-02-23T06:27:25.927Z,18.45
2023-02-23T06:29:52.465Z,18.90
2023-02-23T06:32:19.148Z,17.65
2023-02-23T06:34:45.777Z,25.30
2023-02-23T06:37:12.375Z,21.40
2023-02-23T06:39:38.987Z,19.13
2023-02-23T06:42:05.597Z,20.90
2023-02-23T06:44:35.434Z,21.30
2023-02-23T06:47:05.859Z,21.90
2023-02-23T06:49:33.089Z,21.55
2023-02-23T06:52:00.277Z,20.83
2023-02-23T06:54:26.922Z,24.40
2023-02-23T06:56:55.711Z,22.70
2023-02-23T06:59:22.316Z,20.75
2023-02-23T07:01:49.565Z,19.70
2023-02-23T07:04:16.966Z,20.83
2023-02-23T07:06:43.953Z,20.08
2023-02-23T07:09:10.547Z,20.40
2023-02-23T07:11:37.143Z,20.38
2023-02-23T07:14:03.793Z,17.17
2023-02-23T07:16:30.712Z,20.60
2023-02-23T07:18:57.288Z,18.90
2023-02-23T07:21:23.865Z,19.27
2023-02-23T07:23:50.458Z,20.05
2023-02-23T07:26:18.419Z,17.27
2023-02-23T07:28:44.947Z,17.45
2023-02-23T07:31:11.776Z,17.45
2023-02-23T07:33:38.363Z,17.48
2023-02-23T07:36:05.621Z,17.13
2023-02-23T07:38:33.099Z,18.90
2023-02-23T07:40:59.678Z,18.08
2023-02-23T07:43:26.299Z,16.73
2023-02-23T07:45:53.007Z,17.00
2023-02-23T07:48:20.762Z,19.77
2023-02-23T07:50:47.880Z,16.85
2023-02-23T07:53:15.426Z,15.27
2023-02-23T07:55:42.924Z,11.48
2023-02-23T07:58:10.053Z,12.30
2023-02-23T08:00:39.111Z,13.55
2023-02-23T08:03:06.644Z,14.02
2023-02-23T08:05:33.280Z,10.55
2023-02-23T08:08:00.345Z,11.55
2023-02-23T08:10:27.110Z,11.45
2023-02-23T08:12:53.763Z,8.38
2023-02-23T08:15:20.612Z,10.98
2023-02-23T08:17:47.197Z,10.88
2023-02-23T08:20:13.821Z,12.80
2023-02-23T08:22:49.393Z,12.65
2023-02-23T08:25:17.750Z,13.50
2023-02-23T08:27:44.390Z,11.85
2023-02-23T08:30:11.760Z,16.80
2023-02-23T08:32:38.421Z,18.65
2023-02-23T08:35:05.787Z,17.17
2023-02-23T08:37:32.834Z,16.92
2023-02-23T08:40:00.702Z,18.90
2023-02-23T08:42:28.248Z,15.88
2023-02-23T08:44:54.994Z,17.17
2023-02-23T08:47:23.214Z,17.27
2023-02-23T08:49:50.730Z,16.60
2023-02-23T08:52:18.133Z,16.42
2023-02-23T08:54:44.729Z,17.15
2023-02-23T08:57:12.669Z,16.60
2023-02-23T08:59:41.180Z,16.60
2023-02-23T09:02:12.401Z,17.90
2023-02-23T09:04:41.826Z,20.30
2023-02-23T09:07:10.415Z,19.45
2023-02-23T09:09:37.034Z,18.38
2023-02-23T09:12:03.734Z,19.80
2023-02-23T09:14:30.429Z,18.60
2023-02-23T09:16:57.027Z,19.33
2023-02-23T09:19:23.674Z,19.23
2023-02-23T09:21:50.275Z,20.10
2023-02-23T09:24:18.643Z,20.20
2023-02-23T09:26:45.994Z,18.65
2023-02-23T09:29:12.691Z,18.50
2023-02-23T09:31:39.583Z,17.85
2023-02-23T09:34:06.338Z,17.05
2023-02-23T09:36:32.885Z,17.52
2023-02-23T09:38:59.539Z,18.40
2023-02-23T09:41:26.084Z,14.80
2023-02-23T09:44:24.190Z,15.93
2023-02-23T09:47:01.336Z,15.73
2023-02-23T09:49:33.557Z,15.25
2023-02-23T09:52:03.944Z,14.90
2023-02-23T09:54:34.776Z,14.07
2023-02-23T09:57:11.231Z,13.57
2023-02-23T09:59:39.672Z,13.38
2023-02-23T10:02:16.375Z,14.02
2023-02-23T10:04:48.068Z,12.18
2023-02-23T10:07:48.726Z,14.70
2023-02-23T10:10:15.406Z,12.55
2023-02-23T10:13:15.577Z,12.88
2023-02-23T10:15:45.684Z,12.60
2023-02-23T10:18:46.213Z,13.57
2023-02-23T10:21:38.691Z,11.65
2023-02-23T10:24:19.503Z,11.63
2023-02-23T10:27:01.192Z,12.02
2023-02-23T10:29:33.982Z,13.02
2023-02-23T10:32:05.708Z,11.38
2023-02-23T10:34:32.640Z,12.48
2023-02-23T10:37:02.149Z,12.95
2023-02-23T10:39:30.844Z,11.25
2023-02-23T10:42:05.660Z,10.90
2023-02-23T10:44:32.728Z,13.00
2023-02-23T10:47:11.537Z,11.00
2023-02-23T10:49:48.236Z,11.35
2023-02-23T10:52:20.380Z,10.25
2023-02-23T10:54:49.240Z,9.93
2023-02-23T10:57:39.831Z,8.57
2023-02-23T11:00:27.674Z,7.85
2023-02-23T11:02:56.157Z,8.23
2023-02-23T11:05:34.906Z,8.10
2023-02-23T11:08:23.081Z,7.65
2023-02-23T11:11:05.760Z,7.30
2023-02-23T11:13:47.621Z,6.95
2023-02-23T11:16:17.790Z,7.40
2023-02-23T11:18:59.270Z,7.15
2023-02-23T11:21:38.863Z,6.60
2023-02-23T11:24:22.486Z,6.90
2023-02-23T11:26:51.714Z,6.95
2023-02-23T11:29:33.557Z,7.20
2023-02-23T11:32:09.898Z,5.68
2023-02-23T11:34:40.871Z,5.95
2023-02-23T11:37:21.798Z,5.95
2023-02-23T11:40:02.490Z,6.57
2023-02-23T11:42:33.598Z,4.32
2023-02-23T11:45:16.602Z,4.32
2023-02-23T11:47:50.198Z,5.07
2023-02-23T11:50:24.700Z,3.85
2023-02-23T11:53:00.890Z,3.22
2023-02-23T11:55:29.911Z,3.75
2023-02-23T11:58:35.942Z,4.88
2023-02-23T12:01:13.541Z,4.22
2023-02-23T12:03:47.975Z,4.25
2023-02-23T12:06:37.577Z,4.00
2023-02-23T12:09:13.194Z,3.70
2023-02-23T12:11:48.593Z,2.63
2023-02-23T12:14:29.689Z,2.70
2023-02-23T12:17:05.234Z,2.33
2023-02-23T12:19:38.140Z,2.65
2023-02-23T12:22:13.282Z,2.28
2023-02-23T12:24:58.742Z,3.08
2023-02-23T12:27:36.764Z,2.67
2023-02-23T12:30:15.241Z,2.10
2023-02-23T12:33:12.143Z,2.15
2023-02-23T12:35:59.910Z,2.20
2023-02-23T12:38:38.253Z,2.00
2023-02-23T12:41:18.833Z,2.17
2023-02-23T12:44:01.051Z,1.63
2023-02-23T12:46:37.796Z,1.63
2023-02-23T12:49:17.483Z,1.33
2023-02-23T12:51:53.103Z,1.73
2023-02-23T12:54:20.039Z,1.65
2023-02-23T12:56:54.955Z,1.70
2023-02-23T12:59:25.432Z,1.42
2023-02-23T13:02:01.711Z,2.25
2023-02-23T13:04:52.724Z,2.20
2023-02-23T13:07:44.820Z,2.08
2023-02-23T13:10:26.786Z,1.92
2023-02-23T13:13:23.208Z,2.90
2023-02-23T13:15:54.487Z,2.50
2023-02-23T13:18:29.274Z,3.03
2023-02-23T13:21:05.460Z,2.65
2023-02-23T13:23:40.411Z,2.03
2023-02-23T13:26:11.754Z,2.60
2023-02-23T13:28:56.871Z,2.42
2023-02-23T13:31:31.265Z,2.25
2023-02-23T13:34:00.518Z,2.78
2023-02-23T13:36:30.076Z,1.95
2023-02-23T13:39:19.358Z,2.10
2023-02-23T13:41:49.182Z,1.95
2023-02-23T13:44:49.316Z,1.92
2023-02-23T13:47:57.416Z,2.35
2023-02-23T13:50:51.523Z,2.30
2023-02-23T13:53:55.895Z,2.80
2023-02-23T13:56:25.067Z,1.60
2023-02-23T13:59:05.054Z,2.88
2023-02-23T14:01:40.713Z,1.92
2023-02-23T14:04:15.201Z,1.80
2023-02-23T14:06:54.071Z,1.60
2023-02-23T14:09:32.714Z,2.50
2023-02-23T14:12:16.924Z,1.98
2023-02-23T14:14:45.353Z,2.00
2023-02-23T14:17:14.878Z,2.10
2023-02-23T14:19:43.031Z,1.83
2023-02-23T14:22:22.391Z,1.70
2023-02-23T14:25:27.780Z,1.90
2023-02-23T14:28:00.778Z,1.92
2023-02-23T14:30:29.304Z,2.00
2023-02-23T14:33:20.214Z,1.88
2023-02-23T14:35:48.728Z,2.53
2023-02-23T14:38:47.962Z,2.10
2023-02-23T14:41:15.364Z,2.15
2023-02-23T14:43:44.206Z,2.03
2023-02-23T14:46:21.985Z,1.85
2023-02-23T14:49:15.584Z,2.10
2023-02-23T14:51:48.171Z,2.65
2023-02-23T14:54:31.550Z,2.42
2023-02-23T14:57:01.042Z,2.95
2023-02-23T14:59:36.936Z,2.78
2023-02-23T15:02:20.071Z,2.40
2023-02-23T15:04:47.174Z,2.83
2023-02-23T15:07:38.812Z,2.08
2023-02-23T15:10:17.295Z,1.95
2023-02-23T15:12:51.859Z,2.33
2023-02-23T15:15:23.820Z,1.50
2023-02-23T15:17:53.553Z,1.88
2023-02-23T15:20:28.722Z,2.10
2023-02-23T15:22:57.701Z,1.95
2023-02-23T15:25:33.794Z,2.85
2023-02-23T15:28:11.086Z,2.92
2023-02-23T15:30:45.850Z,1.70
2023-02-23T15:33:14.490Z,2.72
2023-02-23T15:35:49.680Z,1.98
2023-02-23T15:38:42.247Z,2.85
2023-02-23T15:41:28.832Z,3.88
2023-02-23T15:44:12.046Z,3.72
2023-02-23T15:46:39.360Z,3.95
2023-02-23T15:49:29.691Z,3.08
2023-02-23T15:52:14.691Z,3.72
2023-02-23T15:55:05.030Z,2.22
2023-02-23T15:57:35.584Z,2.10
2023-02-23T16:00:12.755Z,1.92
2023-02-23T16:02:40.994Z,3.60
2023-02-23T16:05:41.787Z,3.78
2023-02-23T16:08:22.954Z,3.92
2023-02-23T16:10:55.120Z,3.83
2023-02-23T16:13:22.613Z,4.22
2023-02-23T16:15:50.642Z,5.45
2023-02-23T16:18:27.326Z,4.25
2023-02-23T16:20:58.732Z,3.58
2023-02-23T16:23:37.274Z,4.55
2023-02-23T16:26:12.240Z,3.08
2023-02-23T16:28:44.848Z,3.50
2023-02-23T16:31:13.413Z,2.00
2023-02-23T16:33:51.159Z,2.75
2023-02-23T16:36:34.327Z,2.13
2023-02-23T16:39:10.414Z,3.63
2023-02-23T16:41:37.154Z,3.47
2023-02-23T16:44:06.413Z,2.20
2023-02-23T16:46:54.233Z,2.60
2023-02-23T16:49:23.637Z,3.40
2023-02-23T16:51:53.275Z,3.03
2023-02-23T16:54:19.959Z,4.13
2023-02-23T16:56:47.921Z,3.75
2023-02-23T16:59:17.637Z,3.50
2023-02-23T17:01:49.888Z,3.33
2023-02-23T17:04:18.900Z,4.30
2023-02-23T17:06:47.287Z,4.97
2023-02-23T17:09:13.887Z,3.85
2023-02-23T17:11:47.237Z,3.75
2023-02-23T17:14:25.246Z,3.58
2023-02-23T17:16:52.056Z,2.72
2023-02-23T17:19:18.859Z,4.57
2023-02-23T17:21:46.614Z,3.67
2023-02-23T17:24:13.218Z,5.82
2023-02-23T17:26:39.804Z,4.05
2023-02-23T17:29:06.386Z,4.63
2023-02-23T17:31:33.596Z,3.50
2023-02-23T17:34:00.360Z,4.53
2023-02-23T17:36:27.688Z,5.03
2023-02-23T17:41:43.342Z,3.90
2023-02-23T17:44:10.414Z,6.43
2023-02-23T17:46:37.753Z,6.80
2023-02-23T17:49:05.032Z,6.95
2023-02-23T17:51:31.712Z,6.85
2023-02-23T17:53:58.303Z,6.93
2023-02-23T17:56:25.520Z,6.32
2023-02-23T17:58:52.122Z,5.70
2023-02-23T18:01:19.805Z,5.57
2023-02-23T18:03:47.975Z,8.90
2023-02-23T18:06:14.999Z,9.15
2023-02-23T18:08:42.405Z,11.18
2023-02-23T18:11:09.440Z,12.02
2023-02-23T18:13:36.871Z,12.48
2023-02-23T18:16:09.177Z,7.63
2023-02-23T18:18:38.570Z,13.20
2023-02-23T18:21:11.911Z,10.93
2023-02-23T18:23:38.585Z,12.82
2023-02-23T18:26:10.806Z,12.48
2023-02-23T18:28:38.853Z,10.38
2023-02-23T18:31:05.915Z,12.52
2023-02-23T18:33:35.822Z,13.82
2023-02-23T18:36:03.973Z,11.50
2023-02-23T18:38:30.704Z,13.63
2023-02-23T18:40:58.617Z,10.43
2023-02-23T18:43:25.277Z,9.10
2023-02-23T18:45:51.837Z,14.07
2023-02-23T18:48:18.636Z,15.43
2023-02-23T18:50:45.434Z,12.90
2023-02-23T18:53:12.331Z,13.55
2023-02-23T18:55:39.004Z,11.05
2023-02-23T18:58:05.886Z,13.50
2023-02-23T19:00:40.204Z,14.27
2023-02-23T19:03:07.401Z,13.15
2023-02-23T19:05:36.204Z,17.52
2023-02-23T19:08:02.937Z,15.43
2023-02-23T19:10:30.434Z,13.23
2023-02-23T19:12:57.099Z,14.43
2023-02-23T19:15:23.712Z,14.05
2023-02-23T19:17:50.263Z,15.95
2023-02-23T19:20:17.259Z,8.57
2023-02-23T19:22:43.870Z,10.98
2023-02-23T19:25:14.758Z,13.38
2023-02-23T19:27:41.850Z,14.43
2023-02-23T19:30:10.052Z,14.32
2023-02-23T19:32:39.776Z,16.60
2023-02-23T19:35:10.804Z,11.15
2023-02-23T19:37:42.283Z,13.93
2023-02-23T19:40:09.941Z,11.00
2023-02-23T19:42:37.021Z,16.85
2023-02-23T19:45:04.241Z,14.50
2023-02-23T19:47:30.921Z,12.73
2023-02-23T19:49:57.552Z,9.55
2023-02-23T19:52:24.890Z,11.43
2023-02-23T19:54:51.652Z,17.27
2023-02-23T19:57:19.864Z,12.35
2023-02-23T19:59:46.496Z,16.08
2023-02-23T20:02:13.151Z,13.98
2023-02-23T20:04:39.867Z,13.25
2023-02-23T20:07:07.739Z,12.88
2023-02-23T20:09:34.492Z,14.20
2023-02-23T20:12:01.114Z,15.90
2023-02-23T20:14:27.896Z,14.75
2023-02-23T20:16:54.656Z,14.57
2023-02-23T20:19:21.840Z,15.23
2023-02-23T20:21:49.805Z,9.35
2023-02-23T20:24:16.691Z,17.70
2023-02-23T20:26:43.658Z,15.38
2023-02-23T20:29:17.947Z,20.38
2023-02-23T20:31:51.203Z,15.77
2023-02-23T20:34:23.912Z,15.32
2023-02-23T20:36:51.099Z,16.48
2023-02-23T20:39:18.669Z,21.33
2023-02-23T20:41:45.760Z,19.10
2023-02-23T20:44:13.863Z,16.25
2023-02-23T20:46:41.430Z,12.02
2023-02-23T20:49:12.903Z,20.58
2023-02-23T20:51:42.435Z,17.95
2023-02-23T20:54:11.138Z,16.40
2023-02-23T20:56:39.423Z,19.30
2023-02-23T20:59:06.844Z,19.05
2023-02-23T21:01:33.826Z,21.73
2023-02-23T21:04:01.103Z,21.13
2023-02-23T21:06:30.050Z,19.90
2023-02-23T21:09:02.779Z,20.40
2023-02-23T21:11:31.923Z,18.52
2023-02-23T21:13:59.913Z,22.23
2023-02-23T21:16:27.936Z,19.38
2023-02-23T21:19:04.259Z,21.48
2023-02-23T21:21:41.790Z,13.40
2023-02-23T21:24:09.266Z,19.13
2023-02-23T21:26:36.160Z,19.38
2023-02-23T21:29:04.710Z,21.05
2023-02-23T21:31:31.588Z,22.10
2023-02-23T21:33:58.247Z,21.63
2023-02-23T21:36:24.905Z,21.40
2023-02-23T21:38:51.629Z,21.65
2023-02-23T21:41:18.859Z,20.38
2023-02-23T21:43:46.186Z,13.45
2023-02-23T21:46:15.760Z,15.85
2023-02-23T21:48:44.231Z,21.55
2023-02-23T21:51:14.396Z,22.55
2023-02-23T21:53:41.566Z,20.58
2023-02-23T21:56:12.410Z,24.20
2023-02-23T21:58:43.507Z,19.98
2023-02-23T22:01:12.519Z,23.88
2023-02-23T22:03:39.147Z,23.17
2023-02-23T22:06:06.131Z,14.45
2023-02-23T22:08:32.672Z,20.10
2023-02-23T22:10:59.355Z,20.15
2023-02-23T22:13:26.173Z,17.80
2023-02-23T22:15:58.766Z,23.17
2023-02-23T22:18:25.686Z,16.88
2023-02-23T22:20:59.929Z,18.80
2023-02-23T22:23:27.812Z,9.48
2023-02-23T22:25:55.270Z,17.02
2023-02-23T22:28:22.035Z,20.73
2023-02-23T22:30:50.960Z,18.95
2023-02-23T22:33:20.501Z,14.60
2023-02-23T22:35:47.432Z,16.85
2023-02-23T22:38:14.231Z,17.10
2023-02-23T22:40:44.555Z,15.55
2023-02-23T22:43:11.456Z,15.20
2023-02-23T22:45:38.956Z,13.77
2023-02-23T22:48:06.849Z,16.67
2023-02-23T22:50:34.401Z,15.55
2023-02-23T22:53:01.462Z,13.02
2023-02-23T22:55:29.857Z,5.70
2023-02-23T22:57:57.653Z,13.52
2023-02-23T23:00:24.419Z,11.63
2023-02-23T23:02:51.055Z,11.02
2023-02-23T23:05:17.972Z,12.20
2023-02-23T23:07:46.978Z,10.75
2023-02-23T23:10:15.686Z,10.48
2023-02-23T23:12:42.470Z,12.13
2023-02-23T23:15:15.022Z,11.50
2023-02-23T23:17:46.431Z,10.88
2023-02-23T23:20:13.411Z,6.60
2023-02-23T23:22:40.015Z,9.63
2023-02-23T23:25:14.738Z,8.70
2023-02-23T23:27:44.673Z,9.60
2023-02-23T23:30:12.043Z,8.45
2023-02-23T23:32:40.632Z,9.18
2023-02-23T23:35:11.273Z,6.30
2023-02-23T23:37:39.876Z,10.15
2023-02-23T23:40:14.700Z,8.93
2023-02-23T23:42:45.917Z,9.75
2023-02-23T23:45:16.310Z,8.05
2023-02-23T23:47:44.411Z,6.38
2023-02-23T23:50:13.421Z,8.27
2023-02-23T23:52:44.034Z,7.22
2023-02-23T23:55:12.733Z,8.15
2023-02-23T23:57:39.645Z,6.72
